Los Angeles, California
Current Conditions -  °F | °C
As of 1:17 AM on Saturday 01 Nov 2014 (Local Time) from KCQT Reporting Station
Light Rain Light Rain  
Wind Chill: 16°   Ceiling: 1600
Heat Index: 16°   Visibility: 5mi
Dew Point: 14°   Wind: 3mph
Humidity: 90%   Direction: NA
Pressure: 29.83"   Gusts: NA
Location:  34.05°N, 118.24°W
Report Text: KCQT 010817Z AUTO VRB03KT 5SM -RA BR FEW006 BKN016 OVC065 16/14 A2983 RMK AO2 P0006 T01560139
Loading
Personal Weather Stations






























Interactive Weather Map New forecast layout! Learn more

10-Day Weather Forecast

Advertisements
Track Severe Weather on mobile